createdAt,value
2017-08-04T00:00:00.618Z,23.98
2017-08-04T00:02:28.096Z,23.70
2017-08-04T00:04:55.555Z,23.82
2017-08-04T00:07:22.998Z,23.93
2017-08-04T00:09:50.502Z,24.11
2017-08-04T00:12:17.958Z,24.07
2017-08-04T00:14:45.424Z,24.10
2017-08-04T00:17:12.878Z,23.91
2017-08-04T00:19:40.353Z,23.87
2017-08-04T00:22:07.825Z,23.85
2017-08-04T00:24:35.273Z,23.80
2017-08-04T00:27:02.858Z,23.77
2017-08-04T00:29:30.320Z,23.73
2017-08-04T00:31:57.770Z,23.70
2017-08-04T00:34:25.229Z,23.73
2017-08-04T00:36:52.745Z,23.67
2017-08-04T00:39:20.220Z,23.75
2017-08-04T00:41:47.662Z,23.76
2017-08-04T00:44:15.150Z,23.68
2017-08-04T00:46:42.601Z,23.80
2017-08-04T00:49:10.173Z,23.71
2017-08-04T00:51:37.842Z,23.84
2017-08-04T00:54:05.305Z,23.83
2017-08-04T00:56:32.758Z,23.62
2017-08-04T00:59:00.438Z,23.66
2017-08-04T01:01:27.885Z,23.67
2017-08-04T01:03:55.345Z,23.73
2017-08-04T01:06:22.969Z,23.73
2017-08-04T01:08:50.416Z,23.70
2017-08-04T01:11:17.866Z,23.69
2017-08-04T01:13:45.338Z,23.72
2017-08-04T01:16:12.808Z,23.63
2017-08-04T01:18:40.256Z,23.68
2017-08-04T01:21:07.725Z,23.82
2017-08-04T01:23:35.197Z,23.66
2017-08-04T01:26:02.799Z,23.62
2017-08-04T01:28:30.260Z,23.68
2017-08-04T01:30:57.707Z,23.58
2017-08-04T01:33:25.190Z,23.52
2017-08-04T01:35:52.636Z,23.49
2017-08-04T01:38:20.082Z,23.47
2017-08-04T01:40:47.553Z,23.60
2017-08-04T01:43:14.996Z,23.56
2017-08-04T01:45:42.461Z,23.51
2017-08-04T01:48:09.934Z,23.44
2017-08-04T01:50:37.377Z,23.41
2017-08-04T01:53:04.849Z,23.40
2017-08-04T01:55:32.300Z,23.35
2017-08-04T01:57:59.768Z,23.17
2017-08-04T02:00:27.227Z,23.22
2017-08-04T02:02:54.706Z,23.47
2017-08-04T02:05:22.214Z,23.37
2017-08-04T02:07:49.709Z,23.28
2017-08-04T02:10:17.157Z,23.23
2017-08-04T02:12:44.601Z,23.31
2017-08-04T02:15:12.065Z,23.26
2017-08-04T02:17:39.512Z,23.22
2017-08-04T02:20:07.232Z,23.26
2017-08-04T02:22:34.685Z,23.21
2017-08-04T02:25:02.129Z,23.03
2017-08-04T02:27:29.596Z,23.01
2017-08-04T02:29:57.070Z,22.97
2017-08-04T02:32:24.509Z,22.90
2017-08-04T02:34:52.006Z,22.90
2017-08-04T02:37:19.449Z,22.93
2017-08-04T02:39:46.891Z,22.98
2017-08-04T02:42:14.355Z,22.91
2017-08-04T02:44:41.809Z,22.93
2017-08-04T02:49:36.274Z,22.82
2017-08-04T02:52:03.722Z,22.71
2017-08-04T02:54:31.202Z,22.66
2017-08-04T02:56:58.646Z,22.67
2017-08-04T02:59:26.136Z,22.63
2017-08-04T03:01:53.587Z,22.56
2017-08-04T03:04:21.043Z,22.68
2017-08-04T03:06:48.507Z,22.79
2017-08-04T03:09:15.971Z,22.87
2017-08-04T03:11:43.440Z,22.92
2017-08-04T03:14:10.883Z,23.32
2017-08-04T03:16:38.346Z,23.54
2017-08-04T03:19:05.822Z,23.41
2017-08-04T03:21:33.266Z,23.32
2017-08-04T03:24:00.715Z,24.03
2017-08-04T03:26:28.195Z,23.94
2017-08-04T03:28:55.650Z,24.20
2017-08-04T03:31:23.261Z,24.22
2017-08-04T03:33:50.717Z,23.34
2017-08-04T03:36:18.169Z,22.95
2017-08-04T03:38:45.638Z,22.92
2017-08-04T03:41:13.116Z,22.92
2017-08-04T03:43:40.634Z,22.90
2017-08-04T03:46:08.084Z,22.91
2017-08-04T03:48:35.537Z,22.96
2017-08-04T03:51:03.250Z,22.86
2017-08-04T03:53:30.701Z,22.88
2017-08-04T03:55:58.146Z,22.87
2017-08-04T03:58:25.622Z,22.77
2017-08-04T04:00:53.074Z,22.93
2017-08-04T04:03:20.553Z,23.00
2017-08-04T04:05:48.040Z,22.92
2017-08-04T04:08:15.513Z,22.83
2017-08-04T04:10:42.960Z,22.77
2017-08-04T04:13:10.442Z,22.65
2017-08-04T04:15:37.897Z,22.91
2017-08-04T04:18:05.377Z,23.05
2017-08-04T04:20:32.846Z,23.11
2017-08-04T04:23:00.314Z,23.07
2017-08-04T04:25:27.773Z,23.24
2017-08-04T04:27:55.241Z,23.36
2017-08-04T04:30:22.702Z,23.04
2017-08-04T04:32:50.176Z,23.16
2017-08-04T04:35:17.624Z,23.21
2017-08-04T04:37:45.069Z,23.27
2017-08-04T04:40:12.532Z,23.29
2017-08-04T04:42:39.988Z,23.25
2017-08-04T04:45:07.737Z,23.29
2017-08-04T04:47:35.267Z,23.29
2017-08-04T04:50:02.724Z,23.27
2017-08-04T04:52:30.354Z,23.23
2017-08-04T04:54:57.800Z,23.37
2017-08-04T04:57:25.256Z,23.36
2017-08-04T04:59:53.058Z,23.42
2017-08-04T05:02:20.501Z,23.47
2017-08-04T05:04:47.948Z,23.38
2017-08-04T05:07:15.422Z,23.48
2017-08-04T05:09:42.873Z,23.55
2017-08-04T05:12:10.352Z,23.64
2017-08-04T05:14:37.901Z,23.50
2017-08-04T05:17:05.349Z,23.44
2017-08-04T05:19:32.821Z,23.47
2017-08-04T05:22:00.277Z,23.43
2017-08-04T05:24:27.744Z,23.37
2017-08-04T05:26:55.191Z,23.33
2017-08-04T05:29:22.880Z,23.52
2017-08-04T05:31:50.340Z,23.48
2017-08-04T05:34:17.794Z,23.48
2017-08-04T05:36:45.269Z,23.42
2017-08-04T05:39:12.720Z,23.56
2017-08-04T05:41:40.185Z,23.50
2017-08-04T05:44:07.686Z,23.59
2017-08-04T05:46:35.179Z,23.62
2017-08-04T05:49:02.652Z,23.59
2017-08-04T05:51:30.123Z,23.57
2017-08-04T05:53:57.585Z,23.57
2017-08-04T05:56:25.042Z,23.61
2017-08-04T05:58:52.515Z,23.62
2017-08-04T06:01:19.977Z,23.68
2017-08-04T06:03:47.445Z,23.65
2017-08-04T06:06:14.901Z,23.68
2017-08-04T06:08:42.372Z,23.62
2017-08-04T06:11:09.842Z,23.66
2017-08-04T06:13:37.285Z,23.64
2017-08-04T06:16:04.769Z,23.60
2017-08-04T06:18:32.223Z,23.68
2017-08-04T06:20:59.681Z,23.67
2017-08-04T06:23:27.145Z,23.75
2017-08-04T06:25:54.617Z,23.79
2017-08-04T06:28:22.101Z,23.76
2017-08-04T06:30:49.556Z,23.75
2017-08-04T06:33:17.141Z,23.86
2017-08-04T06:35:44.590Z,23.85
2017-08-04T06:38:12.051Z,23.95
2017-08-04T06:40:39.517Z,23.97
2017-08-04T06:43:06.964Z,23.91
2017-08-04T06:45:34.405Z,24.08
2017-08-04T06:48:01.891Z,24.27
2017-08-04T06:50:41.093Z,24.28
2017-08-04T06:53:20.233Z,24.14
2017-08-04T06:56:08.187Z,24.38
2017-08-04T06:58:35.975Z,24.44
2017-08-04T07:01:03.426Z,24.74
2017-08-04T07:03:30.873Z,24.47
2017-08-04T07:05:58.340Z,24.51
2017-08-04T07:08:25.781Z,24.12
2017-08-04T07:10:53.255Z,24.40
2017-08-04T07:13:20.705Z,24.31
2017-08-04T07:15:48.172Z,24.13
2017-08-04T07:18:15.742Z,24.65
2017-08-04T07:20:43.201Z,24.70
2017-08-04T07:23:10.652Z,24.64
2017-08-04T07:25:38.124Z,24.70
2017-08-04T07:28:05.573Z,24.77
2017-08-04T07:30:33.259Z,25.04
2017-08-04T07:33:00.729Z,25.08
2017-08-04T07:35:28.169Z,25.18
2017-08-04T07:37:55.658Z,25.10
2017-08-04T07:40:23.111Z,25.25
2017-08-04T07:42:50.686Z,25.52
2017-08-04T07:45:18.132Z,25.38
2017-08-04T07:47:45.579Z,25.72
2017-08-04T07:50:13.052Z,26.34
2017-08-04T07:52:40.501Z,26.24
2017-08-04T07:55:07.973Z,25.72
2017-08-04T07:57:35.422Z,26.19
2017-08-04T08:00:03.087Z,26.43
2017-08-04T08:02:30.536Z,26.55
2017-08-04T08:04:57.980Z,26.31
2017-08-04T08:07:26.102Z,27.14
2017-08-04T08:09:53.569Z,26.85
2017-08-04T08:12:21.013Z,27.25
2017-08-04T08:14:48.490Z,27.40
2017-08-04T08:17:15.929Z,27.46
2017-08-04T08:19:43.696Z,27.75
2017-08-04T08:22:11.150Z,27.94
2017-08-04T08:24:38.601Z,27.82
2017-08-04T08:27:06.070Z,27.58
2017-08-04T08:29:33.621Z,27.79
2017-08-04T08:32:01.307Z,28.06
2017-08-04T08:34:28.753Z,27.61
2017-08-04T08:36:56.197Z,27.58
2017-08-04T08:39:23.658Z,27.47
2017-08-04T08:41:51.112Z,27.96
2017-08-04T08:44:18.562Z,27.95
2017-08-04T08:46:46.033Z,27.89
2017-08-04T08:49:13.497Z,28.04
2017-08-04T08:51:40.929Z,27.88
2017-08-04T08:54:08.741Z,28.05
2017-08-04T08:56:36.185Z,27.96
2017-08-04T08:59:03.625Z,28.16
2017-08-04T09:01:31.115Z,27.75
2017-08-04T09:03:58.571Z,28.47
2017-08-04T09:06:26.018Z,28.59
2017-08-04T09:08:53.646Z,29.06
2017-08-04T09:11:21.100Z,28.84
2017-08-04T09:13:48.545Z,28.48
2017-08-04T09:16:16.024Z,28.60
2017-08-04T09:18:43.507Z,28.54
2017-08-04T09:21:10.967Z,28.39
2017-08-04T09:23:38.453Z,28.85
2017-08-04T09:26:05.930Z,29.66
2017-08-04T09:28:33.427Z,29.34
2017-08-04T09:31:00.886Z,29.75
2017-08-04T09:33:28.333Z,30.34
2017-08-04T09:35:55.801Z,30.57
2017-08-04T09:38:23.638Z,30.09
2017-08-04T09:40:51.085Z,30.74
2017-08-04T09:43:18.530Z,29.96
2017-08-04T09:45:46.009Z,29.78
2017-08-04T09:48:13.489Z,30.03
2017-08-04T09:50:40.970Z,29.68
2017-08-04T09:53:08.421Z,30.69
2017-08-04T09:55:35.884Z,30.55
2017-08-04T09:58:03.368Z,30.78
2017-08-04T10:00:30.824Z,30.97
2017-08-04T10:02:58.277Z,31.11
2017-08-04T10:05:26.006Z,30.43
2017-08-04T10:07:53.456Z,30.34
2017-08-04T10:10:20.905Z,31.27
2017-08-04T10:12:48.377Z,29.33
2017-08-04T10:15:15.840Z,29.58
2017-08-04T10:17:43.281Z,29.36
2017-08-04T10:20:11.064Z,29.90
2017-08-04T10:22:38.515Z,30.43
2017-08-04T10:25:05.979Z,30.85
2017-08-04T10:27:33.449Z,29.97
2017-08-04T10:30:00.890Z,30.20
2017-08-04T10:32:28.359Z,31.69
2017-08-04T10:34:55.812Z,32.65
2017-08-04T10:37:23.301Z,32.95
2017-08-04T10:39:50.748Z,32.24
2017-08-04T10:42:18.186Z,32.35
2017-08-04T10:44:45.651Z,30.47
2017-08-04T10:47:13.101Z,31.96
2017-08-04T10:49:40.590Z,31.71
2017-08-04T10:52:08.037Z,31.38
2017-08-04T10:54:35.497Z,32.15
2017-08-04T10:57:02.962Z,32.63
2017-08-04T10:59:30.410Z,32.72
2017-08-04T11:01:57.893Z,31.14
2017-08-04T11:04:25.345Z,32.28
2017-08-04T11:06:52.795Z,32.18
2017-08-04T11:09:20.261Z,32.22
2017-08-04T11:11:47.707Z,32.35
2017-08-04T11:14:15.172Z,33.51
2017-08-04T11:16:42.610Z,32.38
2017-08-04T11:19:10.084Z,32.05
2017-08-04T11:21:37.526Z,32.22
2017-08-04T11:24:04.978Z,30.95
2017-08-04T11:26:32.445Z,30.21
2017-08-04T11:28:59.892Z,30.91
2017-08-04T11:31:27.333Z,31.60
2017-08-04T11:33:54.792Z,31.96
2017-08-04T11:36:22.236Z,32.73
2017-08-04T11:38:50.101Z,32.62
2017-08-04T11:41:17.549Z,33.65
2017-08-04T11:43:44.992Z,31.40
2017-08-04T11:46:12.461Z,31.93
2017-08-04T11:48:39.905Z,33.43
2017-08-04T11:51:07.388Z,33.87
2017-08-04T11:53:34.828Z,34.54
2017-08-04T11:56:02.297Z,34.09
2017-08-04T11:58:30.078Z,33.94
2017-08-04T12:00:57.526Z,34.89
2017-08-04T12:03:24.975Z,34.83
2017-08-04T12:05:52.441Z,32.69
2017-08-04T12:08:19.881Z,33.25
2017-08-04T12:10:47.348Z,35.45
2017-08-04T12:13:14.791Z,33.92
2017-08-04T12:15:42.259Z,35.84
2017-08-04T12:18:09.710Z,35.84
2017-08-04T12:20:37.157Z,35.90
2017-08-04T12:23:04.630Z,35.48
2017-08-04T12:25:32.085Z,34.32
2017-08-04T12:27:59.919Z,36.03
2017-08-04T12:30:27.376Z,37.14
2017-08-04T12:32:54.822Z,33.54
2017-08-04T12:35:22.289Z,35.55
2017-08-04T12:37:49.756Z,33.28
2017-08-04T12:40:17.545Z,35.49
2017-08-04T12:42:45.208Z,33.88
2017-08-04T12:45:12.666Z,34.29
2017-08-04T12:47:40.113Z,34.65
2017-08-04T12:50:07.582Z,33.96
2017-08-04T12:52:35.081Z,33.84
2017-08-04T12:55:02.527Z,33.93
2017-08-04T12:57:29.973Z,35.60
2017-08-04T12:59:57.447Z,36.81
2017-08-04T13:02:24.920Z,33.86
2017-08-04T13:04:52.409Z,32.24
2017-08-04T13:07:19.861Z,34.80
2017-08-04T13:09:47.308Z,34.68
2017-08-04T13:12:14.793Z,34.36
2017-08-04T13:14:42.236Z,34.13
2017-08-04T13:17:09.680Z,34.73
2017-08-04T13:19:37.487Z,33.23
2017-08-04T13:22:04.938Z,34.82
2017-08-04T13:24:32.393Z,36.34
2017-08-04T13:26:59.856Z,33.90
2017-08-04T13:29:27.305Z,35.20
2017-08-04T13:31:54.745Z,35.64
2017-08-04T13:34:22.226Z,36.31
2017-08-04T13:36:49.669Z,36.74
2017-08-04T13:39:17.119Z,36.86
2017-08-04T13:41:44.597Z,37.04
2017-08-04T13:44:12.044Z,33.71
2017-08-04T13:46:39.494Z,36.01
2017-08-04T13:49:06.970Z,36.24
2017-08-04T13:51:34.630Z,34.53
2017-08-04T13:54:02.083Z,33.73
2017-08-04T13:56:29.530Z,34.55
2017-08-04T13:58:57.396Z,35.21
2017-08-04T14:01:24.836Z,34.77
2017-08-04T14:03:52.276Z,34.42
2017-08-04T14:06:19.737Z,34.89
2017-08-04T14:08:47.206Z,34.78
2017-08-04T14:11:14.669Z,34.68
2017-08-04T14:13:42.157Z,35.30
2017-08-04T14:16:09.592Z,36.48
2017-08-04T14:18:37.050Z,34.28
2017-08-04T14:21:04.528Z,33.28
2017-08-04T14:23:31.967Z,35.04
2017-08-04T14:25:59.437Z,36.53
2017-08-04T14:28:26.881Z,33.99
2017-08-04T14:30:54.458Z,34.00
2017-08-04T14:33:21.904Z,32.48
2017-08-04T14:35:49.347Z,31.94
2017-08-04T14:38:16.809Z,33.54
2017-08-04T14:40:44.266Z,34.14
2017-08-04T14:43:11.702Z,35.71
2017-08-04T14:45:39.168Z,35.38
2017-08-04T14:48:06.617Z,32.51
2017-08-04T14:50:34.084Z,34.68
2017-08-04T14:53:01.531Z,36.06
2017-08-04T14:55:28.996Z,35.13
2017-08-04T14:57:56.452Z,34.94
2017-08-04T15:00:23.906Z,36.40
2017-08-04T15:02:51.553Z,36.98
2017-08-04T15:05:19.009Z,37.40
2017-08-04T15:07:46.476Z,37.13
2017-08-04T15:10:13.950Z,36.07
2017-08-04T15:12:41.418Z,36.04
2017-08-04T15:15:08.878Z,34.96
2017-08-04T15:17:36.346Z,35.52
2017-08-04T15:20:03.795Z,36.16
2017-08-04T15:22:31.264Z,35.55
2017-08-04T15:24:58.718Z,34.79
2017-08-04T15:27:26.214Z,36.21
2017-08-04T15:29:53.662Z,36.55
2017-08-04T15:32:21.142Z,36.57
2017-08-04T15:34:48.585Z,36.71
2017-08-04T15:37:16.041Z,36.18
2017-08-04T15:39:43.502Z,36.80
2017-08-04T15:42:11.001Z,35.87
2017-08-04T15:44:38.457Z,33.85
2017-08-04T15:47:05.928Z,34.80
2017-08-04T15:49:33.377Z,35.77
2017-08-04T15:52:00.844Z,36.06
2017-08-04T15:54:28.299Z,37.11
2017-08-04T15:56:55.892Z,35.13
2017-08-04T15:59:23.334Z,36.59
2017-08-04T16:01:50.787Z,35.41
2017-08-04T16:04:18.274Z,36.10
2017-08-04T16:06:45.738Z,35.54
2017-08-04T16:09:13.212Z,35.85
2017-08-04T16:11:40.664Z,35.66
2017-08-04T16:14:08.135Z,34.39
2017-08-04T16:16:35.577Z,34.52
2017-08-04T16:19:03.064Z,34.16
2017-08-04T16:21:30.505Z,33.44
2017-08-04T16:23:57.956Z,33.37
2017-08-04T16:26:25.451Z,35.23
2017-08-04T16:28:52.893Z,35.61
2017-08-04T16:31:20.337Z,35.21
2017-08-04T16:33:47.814Z,34.72
2017-08-04T16:36:15.289Z,34.12
2017-08-04T16:38:42.756Z,35.66
2017-08-04T16:41:10.202Z,34.66
2017-08-04T16:43:37.885Z,34.90
2017-08-04T16:46:05.327Z,33.90
2017-08-04T16:48:32.777Z,33.78
2017-08-04T16:51:00.359Z,33.24
2017-08-04T16:53:27.817Z,33.60
2017-08-04T16:55:55.258Z,33.34
2017-08-04T16:58:22.731Z,33.28
2017-08-04T17:00:50.173Z,34.15
2017-08-04T17:03:17.640Z,34.15
2017-08-04T17:05:45.120Z,34.54
2017-08-04T17:08:12.573Z,34.01
2017-08-04T17:10:40.271Z,34.71
2017-08-04T17:13:07.729Z,33.92
2017-08-04T17:15:35.174Z,34.58
2017-08-04T17:18:02.658Z,34.42
2017-08-04T17:20:30.104Z,34.81
2017-08-04T17:22:57.918Z,34.47
2017-08-04T17:25:25.385Z,32.91
2017-08-04T17:27:52.877Z,32.69
2017-08-04T17:30:20.322Z,31.89
2017-08-04T17:32:47.791Z,30.95
2017-08-04T17:35:15.253Z,31.46
2017-08-04T17:37:42.706Z,32.22
2017-08-04T17:40:10.174Z,31.96
2017-08-04T17:42:37.625Z,32.76
2017-08-04T17:45:05.098Z,32.29
2017-08-04T17:47:32.556Z,31.65
2017-08-04T17:50:00.032Z,31.37
2017-08-04T17:52:27.481Z,31.09
2017-08-04T17:54:54.929Z,30.81
2017-08-04T17:57:22.401Z,29.87
2017-08-04T17:59:49.843Z,29.95
2017-08-04T18:02:28.909Z,30.50
2017-08-04T18:04:56.369Z,29.68
2017-08-04T18:07:23.817Z,29.64
2017-08-04T18:09:51.581Z,29.62
2017-08-04T18:12:19.032Z,29.52
2017-08-04T18:14:46.481Z,29.82
2017-08-04T18:17:13.949Z,29.65
2017-08-04T18:19:41.401Z,29.56
2017-08-04T18:22:09.198Z,29.52
2017-08-04T18:24:36.642Z,29.36
2017-08-04T18:27:04.086Z,29.27
2017-08-04T18:29:31.551Z,29.08
2017-08-04T18:31:59.048Z,29.03
2017-08-04T18:34:26.516Z,29.02
2017-08-04T18:36:53.975Z,29.03
2017-08-04T18:39:21.717Z,28.81
2017-08-04T18:41:49.163Z,28.69
2017-08-04T18:44:16.621Z,28.67
2017-08-04T18:46:44.114Z,28.74
2017-08-04T18:49:11.573Z,28.73
2017-08-04T18:51:39.012Z,28.73
2017-08-04T18:54:06.500Z,28.53
2017-08-04T18:56:33.969Z,28.56
2017-08-04T18:59:01.437Z,28.56
2017-08-04T19:01:28.896Z,28.57
2017-08-04T19:03:56.371Z,28.42
2017-08-04T19:06:23.829Z,28.54
2017-08-04T19:08:51.296Z,28.44
2017-08-04T19:11:18.749Z,28.44
2017-08-04T19:13:46.225Z,28.40
2017-08-04T19:16:13.701Z,28.34
2017-08-04T19:18:41.154Z,28.21
2017-08-04T19:21:08.633Z,28.22
2017-08-04T19:23:36.077Z,28.19
2017-08-04T19:26:03.541Z,28.20
2017-08-04T19:28:31.005Z,28.10
2017-08-04T19:30:58.449Z,28.15
2017-08-04T19:33:25.944Z,28.00
2017-08-04T19:35:53.395Z,27.89
2017-08-04T19:38:20.842Z,27.80
2017-08-04T19:40:48.329Z,27.84
2017-08-04T19:43:15.772Z,27.91
2017-08-04T19:45:43.359Z,27.77
2017-08-04T19:48:10.804Z,27.74
2017-08-04T19:50:38.249Z,27.74
2017-08-04T19:53:05.721Z,27.91
2017-08-04T19:55:33.166Z,27.88
2017-08-04T19:58:00.642Z,27.86
2017-08-04T20:00:28.112Z,27.78
2017-08-04T20:02:55.561Z,27.72
2017-08-04T20:05:23.133Z,27.76
2017-08-04T20:07:50.578Z,27.52
2017-08-04T20:10:18.037Z,27.52
2017-08-04T20:12:45.513Z,27.41
2017-08-04T20:15:13.192Z,27.39
2017-08-04T20:17:40.650Z,27.29
2017-08-04T20:20:08.102Z,27.39
2017-08-04T20:22:35.584Z,27.34
2017-08-04T20:25:03.040Z,27.36
2017-08-04T20:27:30.495Z,27.28
2017-08-04T20:29:57.976Z,27.18
2017-08-04T20:32:25.426Z,27.11
2017-08-04T20:34:52.909Z,27.13
2017-08-04T20:37:20.360Z,27.19
2017-08-04T20:39:47.824Z,27.05
2017-08-04T20:42:15.275Z,27.09
2017-08-04T20:44:42.749Z,27.07
2017-08-04T20:47:10.364Z,27.06
2017-08-04T20:49:38.678Z,27.13
2017-08-04T20:52:06.140Z,27.06
2017-08-04T20:54:33.614Z,27.01
2017-08-04T20:57:01.077Z,26.93
2017-08-04T20:59:28.549Z,26.90
2017-08-04T21:01:55.996Z,26.87
2017-08-04T21:04:23.710Z,26.88
2017-08-04T21:06:51.170Z,26.79
2017-08-04T21:09:18.613Z,26.79
2017-08-04T21:11:46.265Z,26.74
2017-08-04T21:14:13.718Z,26.71
2017-08-04T21:16:41.157Z,26.68
2017-08-04T21:19:08.626Z,26.66
2017-08-04T21:21:36.087Z,26.62
2017-08-04T21:24:03.658Z,26.59
2017-08-04T21:26:31.110Z,26.53
2017-08-04T21:28:58.554Z,26.51
2017-08-04T21:31:26.034Z,26.44
2017-08-04T21:33:53.504Z,26.46
2017-08-04T21:36:20.948Z,26.45
2017-08-04T21:38:48.421Z,26.45
2017-08-04T21:41:15.894Z,26.37
2017-08-04T21:43:43.338Z,26.33
2017-08-04T21:46:10.781Z,26.34
2017-08-04T21:48:38.270Z,26.37
2017-08-04T21:51:05.740Z,26.34
2017-08-04T21:53:33.192Z,26.26
2017-08-04T21:56:00.974Z,26.20
2017-08-04T21:58:28.424Z,26.22
2017-08-04T22:00:55.865Z,26.11
2017-08-04T22:03:23.363Z,26.16
2017-08-04T22:05:50.810Z,26.22
2017-08-04T22:08:18.283Z,26.20
2017-08-04T22:10:45.729Z,26.20
2017-08-04T22:13:13.206Z,26.20
2017-08-04T22:15:41.010Z,26.16
2017-08-04T22:18:08.457Z,26.21
2017-08-04T22:20:35.905Z,26.11
2017-08-04T22:23:03.390Z,26.10
2017-08-04T22:25:30.852Z,26.11
2017-08-04T22:27:58.421Z,25.97
2017-08-04T22:30:25.866Z,26.00
2017-08-04T22:32:53.305Z,25.99
2017-08-04T22:35:20.791Z,26.01
2017-08-04T22:37:48.247Z,25.97
2017-08-04T22:40:15.690Z,26.10
2017-08-04T22:42:43.158Z,26.02
2017-08-04T22:45:10.634Z,25.95
2017-08-04T22:47:38.086Z,25.95
2017-08-04T22:50:05.654Z,25.83
2017-08-04T22:52:33.119Z,25.87
2017-08-04T22:55:00.574Z,25.91
2017-08-04T22:57:28.045Z,25.85
2017-08-04T22:59:55.518Z,25.90
2017-08-04T23:02:22.963Z,25.88
2017-08-04T23:04:50.770Z,25.87
2017-08-04T23:07:18.214Z,25.94
2017-08-04T23:09:45.658Z,25.86
2017-08-04T23:12:13.132Z,25.85
2017-08-04T23:14:40.614Z,25.84
2017-08-04T23:17:08.065Z,25.83
2017-08-04T23:19:35.537Z,25.73
2017-08-04T23:22:03.025Z,25.70
2017-08-04T23:24:30.465Z,25.73
2017-08-04T23:26:57.932Z,25.69
2017-08-04T23:29:25.404Z,25.56
2017-08-04T23:31:52.882Z,25.57
2017-08-04T23:34:20.337Z,25.45
2017-08-04T23:36:47.801Z,25.41
2017-08-04T23:39:15.266Z,25.32
2017-08-04T23:41:42.733Z,25.37
2017-08-04T23:44:10.397Z,25.19
2017-08-04T23:46:37.847Z,25.14
2017-08-04T23:49:05.294Z,25.13
2017-08-04T23:51:32.766Z,25.09
2017-08-04T23:54:00.212Z,24.98
2017-08-04T23:56:27.682Z,24.88
2017-08-04T23:58:55.125Z,24.83
